Terminal Aerodrome Forecast
Issued by NWS

Home | Current Version | Previous Version | Text Only | Print | Product List | Glossary On
Versions: 1 2 3 4 5 6 7 8 9 10 11 12 13 14
000
FTUS44 KLZK 201409 AAA
TAFLLQ
TAF AMD
KLLQ 201409Z 2014/2112 20008G15KT P6SM VCSH SCT015 SCT050
      TEMPO 2015/2019 BKN015
     FM210100 18004KT P6SM FEW050
     FM211100 00000KT 5SM BR SKC=

USA.gov is the U.S. government's official web portal to all federal, state and local government web resources and services.